Map

Track Data

SID SEASON NUMBER BASIN SUBBASIN NAME ISO_TIME NATURE LAT LON WMO_WIND WMO_PRES WMO_AGENCY TRACK_TYPE DIST2LAND LANDFALL IFLAG USA_AGENCY USA_ATCF_ID USA_LAT USA_LON USA_RECORD USA_STATUS USA_WIND USA_PRES USA_SSHS USA_R34_NE USA_R34_SE USA_R34_SW USA_R34_NW USA_R50_NE USA_R50_SE USA_R50_SW USA_R50_NW USA_R64_NE USA_R64_SE USA_R64_SW USA_R64_NW USA_POCI USA_ROCI USA_RMW USA_EYE TOKYO_LAT TOKYO_LON TOKYO_GRADE TOKYO_WIND TOKYO_PRES TOKYO_R50_DIR TOKYO_R50_LONG TOKYO_R50_SHORT TOKYO_R30_DIR TOKYO_R30_LONG TOKYO_R30_SHORT TOKYO_LAND CMA_LAT CMA_LON CMA_CAT CMA_WIND CMA_PRES HKO_LAT HKO_LON HKO_CAT HKO_WIND HKO_PRES NEWDELHI_LAT NEWDELHI_LON NEWDELHI_GRADE NEWDELHI_WIND NEWDELHI_PRES NEWDELHI_CI NEWDELHI_DP NEWDELHI_POCI REUNION_LAT REUNION_LON REUNION_TYPE REUNION_WIND REUNION_PRES REUNION_TNUM REUNION_CI REUNION_RMW REUNION_R34_NE REUNION_R34_SE REUNION_R34_SW REUNION_R34_NW REUNION_R50_NE REUNION_R50_SE REUNION_R50_SW REUNION_R50_NW REUNION_R64_NE REUNION_R64_SE REUNION_R64_SW REUNION_R64_NW BOM_LAT BOM_LON BOM_TYPE BOM_WIND BOM_PRES BOM_TNUM BOM_CI BOM_RMW BOM_R34_NE BOM_R34_SE BOM_R34_SW BOM_R34_NW BOM_R50_NE BOM_R50_SE BOM_R50_SW BOM_R50_NW BOM_R64_NE BOM_R64_SE BOM_R64_SW BOM_R64_NW BOM_ROCI BOM_POCI BOM_EYE BOM_POS_METHOD BOM_PRES_METHOD NADI_LAT NADI_LON NADI_CAT NADI_WIND NADI_PRES WELLINGTON_LAT WELLINGTON_LON WELLINGTON_WIND WELLINGTON_PRES DS824_LAT DS824_LON DS824_STAGE DS824_WIND DS824_PRES TD9636_LAT TD9636_LON TD9636_STAGE TD9636_WIND TD9636_PRES TD9635_LAT TD9635_LON TD9635_WIND TD9635_PRES TD9635_ROCI NEUMANN_LAT NEUMANN_LON NEUMANN_CLASS NEUMANN_WIND NEUMANN_PRES MLC_LAT MLC_LON MLC_CLASS MLC_WIND MLC_PRES USA_GUST BOM_GUST BOM_GUST_PER REUNION_GUST REUNION_GUST_PER USA_SEAHGT USA_SEARAD_NE USA_SEARAD_SE USA_SEARAD_SW USA_SEARAD_NW STORM_SPEED STORM_DIR
1963357S08057 1964 121 SI MM BETTY 1963-12-23 06:00:00 TS -8.20000 56.5000 main 897 882 O________OO___ jtwc_sh SH041964 -8.20000 56.5000 -1 -8.20000 56.5000 TC 25 -8.20000 56.5000 7 17 155
1963357S08057 1964 121 SI MM BETTY 1963-12-23 09:00:00 TS -8.95602 56.8577 main 886 880 P________PP___ SH041964 -8.96511 56.8647 -1 -8.96511 56.8647 TC 25 -8.93784 56.8437 7 15 150
1963357S08057 1964 121 SI MM BETTY 1963-12-23 12:00:00 TS -9.45286 57.2283 reunion main 887 884 O____O___OP_O_ jtwc_sh SH041964 -9.70000 57.2000 -1 -8.40000 57.4000 2 9.90000 -9.70000 57.2000 TC 25 -9.66050 57.1706 7 -8.40000 57.4000 TC 30 12 151
1963357S08057 1964 121 SI MM BETTY 1963-12-23 15:00:00 TS -9.99631 57.4525 main 894 881 P____P___PP_P_ SH041964 -10.3799 57.4801 -1 -8.87249 57.3875 2 -10.3799 57.4801 TC 30 -10.3529 57.4622 7 -8.87249 57.3875 TC 32 11 159
1963357S08057 1964 121 SI MM BETTY 1963-12-23 18:00:00 TS -10.4333 57.6000 reunion main 887 880 O____O___OO_O_ jtwc_sh SH041964 -11.0000 57.7000 -1 -9.30000 57.4000 99 9.90000 -11.0000 57.7000 TC 35 -11.0000 57.7000 2 -9.30000 57.4000 TC 35 9 163
1963357S08057 1964 121 SI MM BETTY 1963-12-23 21:00:00 TS -10.8099 57.7009 main 884 877 P____P___PP_P_ SH041964 -11.5575 57.8652 -1 -9.67001 57.4500 99 -11.5575 57.8652 TC 35 -11.5944 57.8740 2 -9.67001 57.4500 TC 37 9 167
1963357S08057 1964 121 SI MM BETTY 1963-12-24 00:00:00 TS -11.3114 57.8018 reunion main 879 867 O____O___OP_O_ jtwc_sh SH041964 -12.1000 58.0000 -1 -10.1000 57.5000 99 9.90000 -12.1000 58.0000 TC 35 -12.1571 58.0092 2 -10.1000 57.5000 TC 40 11 171
1963357S08057 1964 121 SI MM BETTY 1963-12-24 03:00:00 TS -11.8932 57.8672 main 872 851 P____P___PP_P_ SH041964 -12.6850 58.1352 -1 -10.6900 57.4629 99 -12.6850 58.1352 TC 50 -12.7163 58.1397 2 -10.6900 57.4629 TC 40 13 172
1963357S08057 1964 121 SI MM BETTY 1963-12-24 06:00:00 TS -12.5400 57.9800 reunion main 851 774 O____O___OO_O_ jtwc_sh SH041964 -13.3000 58.3000 -1 -11.4000 57.5000 99 9.90000 -13.3000 58.3000 TC 65 -13.3000 58.3000 4 -11.4000 57.5000 TC 40 14 166
1963357S08057 1964 121 SI MM BETTY 1963-12-24 09:00:00 TS -13.2168 58.2056 main 774 699 P____P___PP_P_ SH041964 -13.9350 58.5276 -1 -12.1400 57.7327 99 -13.9350 58.5276 TC 65 -13.9339 58.5075 4 -12.1400 57.7327 TC 40 15 160
1963357S08057 1964 121 SI MM BETTY 1963-12-24 12:00:00 TS -13.9594 58.5108 reunion main 687 615 O____O___OP_O_ jtwc_sh SH041964 -14.6000 58.8000 -1 -13.0000 58.1000 3 9.90000 -14.6000 58.8000 TC 65 -14.5972 58.7541 4 -13.0000 58.1000 TC 40 17 158
1963357S08057 1964 121 SI MM BETTY 1963-12-24 15:00:00 TS -14.7733 58.8400 main 604 527 P____P___PP_P_ SH041964 -15.2848 59.0630 -1 -14.0050 58.5128 3 -15.2848 59.0630 TC 65 -15.2869 59.0486 4 -14.0050 58.5128 TC 40 18 157
1963357S08057 1964 121 SI MM BETTY 1963-12-24 18:00:00 TS -15.6400 59.2400 reunion main 527 454 O____O___OO_O_ jtwc_sh SH041964 -16.0000 59.4000 -1 -15.1000 59.0000 99 9.90000 -16.0000 59.4000 TC 65 -16.0000 59.4000 4 -15.1000 59.0000 TC 40 20 154
1963357S08057 1964 121 SI MM BETTY 1963-12-24 21:00:00 TS -16.5651 59.7494 main 444 400 P____P___PP_P_ SH041964 -16.7426 59.8774 -1 -16.2751 59.5642 99 -16.7426 59.8774 TC 65 -16.7901 59.8638 4 -16.2751 59.5642 TC 37 21 151
1963357S08057 1964 121 SI MM BETTY 1963-12-25 00:00:00 TS -17.4382 60.2753 reunion main 407 383 O____O___OP_O_ jtwc_sh SH041964 -17.5000 60.4000 -1 -17.3000 60.1000 99 9.90000 -17.5000 60.4000 TC 65 -17.5911 60.3764 4 -17.3000 60.1000 TC 35 19 150
1963357S08057 1964 121 SI MM BETTY 1963-12-25 03:00:00 TS -18.1572 60.7226 main 380 379 P____P___PP_P_ SH041964 -18.2950 60.8947 -1 -17.9246 60.4737 99 -18.2950 60.8947 TC 65 -18.3465 60.8762 4 -17.9246 60.4737 TC 35 15 149
1963357S08057 1964 121 SI MM BETTY 1963-12-25 06:00:00 TS -18.7600 61.1000 reunion main 384 384 O____O___OO_O_ jtwc_sh SH041964 -19.0000 61.3000 -1 -18.4000 60.8000 99 9.90000 -19.0000 61.3000 TC 65 -19.0000 61.3000 4 -18.4000 60.8000 TC 35 13 151
1963357S08057 1964 121 SI MM BETTY 1963-12-25 09:00:00 TS -19.3224 61.4124 main 392 389 P____P___PP_P_ SH041964 -19.5173 61.5456 -1 -19.0375 61.1998 99 -19.5173 61.5456 TC 65 -19.5022 61.5715 4 -19.0375 61.1998 TC 32 12 152
1963357S08057 1964 121 SI MM BETTY 1963-12-25 12:00:00 TS -19.7798 61.6715 reunion main 411 409 O____O___OP_O_ jtwc_sh SH041964 -19.9000 61.7000 -1 -19.6000 61.6000 2 9.90000 -19.9000 61.7000 TC 65 -19.8989 61.7575 4 -19.6000 61.6000 TC 30 9 149
1963357S08057 1964 121 SI MM BETTY 1963-12-25 15:00:00 TS -20.1082 61.9132 main 428 428 P____P___PP_P_ SH041964 -20.2300 61.8726 -1 -19.9299 61.9655 2 -20.2300 61.8726 TC 65 -20.2212 61.8896 4 -19.9299 61.9655 TC 30 7 145
1963357S08057 1964 121 SI MM BETTY 1963-12-25 18:00:00 TS -20.3800 62.1200 reunion main 448 448 O____O___OO_O_ jtwc_sh SH041964 -20.5000 62.0000 -1 -20.2000 62.3000 99 9.90000 -20.5000 62.0000 TC 65 -20.5000 62.0000 4 -20.2000 62.3000 TC 30 7 150
1963357S08057 1964 121 SI MM BETTY 1963-12-25 21:00:00 TS -20.6875 62.2746 main 470 470 P____P___PP_P_ SH041964 -20.7574 62.0427 -1 -20.5849 62.6076 99 -20.7574 62.0427 TC 65 -20.7527 62.0722 4 -20.5849 62.6076 TC 30 7 155
1963357S08057 1964 121 SI MM BETTY 1963-12-26 00:00:00 TS -20.9952 62.4281 reunion main 484 484 O____O___OP_O_ jtwc_sh SH041964 -21.0000 62.1000 -1 -21.0000 62.9000 99 9.90000 -21.0000 62.1000 TC 65 -20.9762 62.1405 4 -21.0000 62.9000 TC 30 7 152
1963357S08057 1964 121 SI MM BETTY 1963-12-26 03:00:00 TS -21.2992 62.6289 main 511 511 P____P___PP_P_ SH041964 -21.2198 62.2330 -1 -21.4225 63.2075 99 -21.2198 62.2330 TC 65 -21.2117 62.2634 4 -21.4225 63.2075 TC 30 8 145
1963357S08057 1964 121 SI MM BETTY 1963-12-26 06:00:00 TS -21.6200 62.9000 reunion main 549 549 O____O___OO_O_ jtwc_sh SH041964 -21.5000 62.5000 -1 -21.8000 63.5000 99 9.90000 -21.5000 62.5000 TC 65 -21.5000 62.5000 4 -21.8000 63.5000 TC 30 9 139
1963357S08057 1964 121 SI MM BETTY 1963-12-26 09:00:00 TS -21.9676 63.2487 main 591 591 P____P___PP_P_ SH041964 -21.9200 62.9399 -1 -22.0422 63.7207 99 -21.9200 62.9399 TC 65 -21.9135 62.9221 4 -22.0422 63.7207 TC 30 10 135
1963357S08057 1964 121 SI MM BETTY 1963-12-26 12:00:00 TS -22.3557 63.6926 reunion main 654 654 O____O___OP_O_ jtwc_sh SH041964 -22.4000 63.5000 -1 -22.3000 64.0000 2 9.90000 -22.4000 63.5000 TC 65 -22.3785 63.4628 4 -22.3000 64.0000 TC 30 12 133
1963357S08057 1964 121 SI MM BETTY 1963-12-26 15:00:00 TS -22.8078 64.2334 main 718 718 P____P___PP_P_ SH041964 -22.8725 64.0924 -1 -22.7201 64.4549 2 -22.8725 64.0924 TC 65 -22.8541 64.0723 4 -22.7201 64.4549 TC 30 14 131
1963357S08057 1964 121 SI MM BETTY 1963-12-26 18:00:00 TS -23.2600 64.8200 reunion main 796 796 O____O___OO_O_ jtwc_sh SH041964 -23.3000 64.7000 -1 -23.2000 65.0000 99 9.90000 -23.3000 64.7000 TC 65 -23.3000 64.7000 4 -23.2000 65.0000 TC 30 13 128
1963357S08057 1964 121 SI MM BETTY 1963-12-26 21:00:00 TS -23.6213 65.3686 main 865 865 P____P___PP_P_ SH041964 -23.6146 65.2507 -1 -23.6349 65.5430 99 -23.6146 65.2507 TC 65 -23.6072 65.2553 4 -23.6349 65.5430 TC 30 12 125
1963357S08057 1964 121 SI MM BETTY 1963-12-27 00:00:00 TS -23.9777 65.9236 reunion main 929 929 O____O___OP_O_ jtwc_sh SH041964 -23.9000 65.8000 -1 -24.1000 66.1000 99 9.90000 -23.9000 65.8000 TC 65 -23.8887 65.8182 4 -24.1000 66.1000 TC 30 13 127
1963357S08057 1964 121 SI MM BETTY 1963-12-27 03:00:00 TS -24.3697 66.4732 main 1003 1003 P____P___PP_P_ SH041964 -24.1973 66.3860 -1 -24.6266 66.5987 99 -24.1973 66.3860 TC 65 -24.2008 66.3966 4 -24.6266 66.5987 TC 30 13 128
1963357S08057 1964 121 SI MM BETTY 1963-12-27 06:00:00 MX -24.8000 67.0667 reunion main 1076 1076 O____O___OO_O_ jtwc_sh SH041964 -24.6000 67.0000 -1 -25.2000 67.2000 99 9.90000 -24.6000 67.0000 TC 65 -24.6000 67.0000 4 -25.2000 67.2000 EX 30 15 130
1963357S08057 1964 121 SI MM BETTY 1963-12-27 09:00:00 MX -25.3398 67.7397 main 1155 1155 P____P___PP_P_ SH041964 -25.2047 67.6351 -1 -25.7969 68.0274 99 -25.2047 67.6351 TC 50 -25.1528 67.6613 4 -25.7969 68.0274 EX 30 17 133
1963357S08057 1964 121 SI MM BETTY 1963-12-27 12:00:00 MX -25.9416 68.4139 reunion main 1247 1247 O____O___OP_O_ jtwc_sh SH041964 -25.9000 68.3000 -1 -26.4000 69.0000 5 9.90000 -25.9000 68.3000 TC 35 -25.7956 68.3486 4 -26.4000 69.0000 EX 30 17 136
1963357S08057 1964 121 SI MM BETTY 1963-12-27 15:00:00 TS -26.5301 69.0176 main 1331 1331 P________PP___ SH041964 -26.5500 69.0079 -1 5 -26.5500 69.0079 TC 30 -26.4904 69.0369 4 EX 17 138
1963357S08057 1964 121 SI MM BETTY 1963-12-27 18:00:00 TS -27.2000 69.7000 main 1429 1429 O________OO___ jtwc_sh SH041964 -27.2000 69.7000 -1 -27.2000 69.7000 TC 25 -27.2000 69.7000 7 18 139
1963357S08057 1964 121 SI MM BETTY 1963-12-27 21:00:00 TS -27.8596 70.3214 main 1519 1519 P________PP___ SH041964 -27.8421 70.3234 -1 -27.8421 70.3234 TC 25 -27.8947 70.3175 7 17 141
1963357S08057 1964 121 SI MM BETTY 1963-12-28 00:00:00 TS -28.5243 70.8989 main 1604 1604 O________OP___ jtwc_sh SH041964 -28.5000 70.9000 -1 -28.5000 70.9000 TC 25 -28.5729 70.8967 7 17 144
1963357S08057 1964 121 SI MM BETTY 1963-12-28 03:00:00 TS -29.2069 71.4531 main 1695 1695 P________PP___ SH041964 -29.1905 71.4534 -1 -29.1905 71.4534 TC 25 -29.2398 71.4525 7 17 145
1963357S08057 1964 121 SI MM BETTY 1963-12-28 06:00:00 TS -29.9000 72.0000 main 1777 O________OO___ jtwc_sh SH041964 -29.9000 72.0000 -1 -29.9000 72.0000 TC 25 -29.9000 72.0000 7 17 146

About IBTrACS Database

This database is a web-friendly format of International Best Track Archive for Climate Stewardship (IBTrACS), a global best track data archive curated by NOAA dating back to 1842.

Updated: 2021-10-21